East Albany, Vermont
Current Conditions -  °F | °C
As of 8:55 AM on Saturday 22 Nov 2014 (Local Time) from KEFK Reporting Station
Overcast Overcast  
Wind Chill: 15°   Ceiling: 9000
Heat Index: 22°   Visibility: 10mi
Dew Point: 13°   Wind: 6mph
Humidity: 69%   Direction: 180°S
Pressure: 30.17"   Gusts: NA
Location:  44.8143°N, 72.284°W
Report Text: KEFK 221355Z AUTO 18005KT 10SM OVC090 M05/M10 A3017 RMK AO2 T10551103
Loading
Personal Weather Stations






























Interactive Weather Map New forecast layout! Learn more

10-Day Weather Forecast

Advertisements
Track Severe Weather on mobile